sensor_id;sensor_type;location;lat;lon;timestamp;P1;durP1;ratioP1;P2;durP2;ratioP2
73672;SDS011;61972;19.480;-99.240;2023-03-04T00:01:48;11.70;;;5.00;;
73672;SDS011;61972;19.480;-99.240;2023-03-04T00:04:15;9.63;;;5.20;;
73672;SDS011;61972;19.480;-99.240;2023-03-04T00:06:41;11.93;;;5.43;;
73672;SDS011;61972;19.480;-99.240;2023-03-04T00:09:07;13.25;;;5.95;;
73672;SDS011;61972;19.480;-99.240;2023-03-04T00:11:34;12.27;;;5.60;;
73672;SDS011;61972;19.480;-99.240;2023-03-04T00:14:00;11.63;;;6.07;;
73672;SDS011;61972;19.480;-99.240;2023-03-04T00:16:26;11.50;;;5.85;;
73672;SDS011;61972;19.480;-99.240;2023-03-04T00:18:56;15.83;;;5.63;;
73672;SDS011;61972;19.480;-99.240;2023-03-04T00:21:22;14.40;;;5.82;;
73672;SDS011;61972;19.480;-99.240;2023-03-04T00:23:49;17.50;;;5.50;;
73672;SDS011;61972;19.480;-99.240;2023-03-04T00:26:15;17.70;;;5.85;;
73672;SDS011;61972;19.480;-99.240;2023-03-04T00:28:42;17.10;;;6.20;;
73672;SDS011;61972;19.480;-99.240;2023-03-04T00:31:08;12.33;;;6.10;;
73672;SDS011;61972;19.480;-99.240;2023-03-04T00:33:35;11.50;;;5.40;;
73672;SDS011;61972;19.480;-99.240;2023-03-04T00:36:01;11.48;;;6.07;;
73672;SDS011;61972;19.480;-99.240;2023-03-04T00:38:29;14.57;;;6.05;;
73672;SDS011;61972;19.480;-99.240;2023-03-04T00:40:55;11.73;;;5.45;;
73672;SDS011;61972;19.480;-99.240;2023-03-04T00:43:21;12.33;;;5.20;;
73672;SDS011;61972;19.480;-99.240;2023-03-04T00:45:48;11.63;;;5.35;;
73672;SDS011;61972;19.480;-99.240;2023-03-04T00:48:14;15.27;;;5.93;;
73672;SDS011;61972;19.480;-99.240;2023-03-04T00:50:40;12.02;;;5.47;;
73672;SDS011;61972;19.480;-99.240;2023-03-04T00:53:07;9.02;;;5.75;;
73672;SDS011;61972;19.480;-99.240;2023-03-04T00:55:34;12.53;;;5.80;;
73672;SDS011;61972;19.480;-99.240;2023-03-04T00:58:00;16.08;;;5.80;;
73672;SDS011;61972;19.480;-99.240;2023-03-04T01:00:26;10.40;;;5.43;;
73672;SDS011;61972;19.480;-99.240;2023-03-04T01:02:52;13.02;;;5.60;;
73672;SDS011;61972;19.480;-99.240;2023-03-04T01:05:18;13.63;;;5.63;;
73672;SDS011;61972;19.480;-99.240;2023-03-04T01:07:44;12.00;;;6.37;;
73672;SDS011;61972;19.480;-99.240;2023-03-04T01:10:11;13.02;;;6.30;;
73672;SDS011;61972;19.480;-99.240;2023-03-04T01:12:38;10.55;;;5.40;;
73672;SDS011;61972;19.480;-99.240;2023-03-04T01:15:06;11.02;;;5.45;;
73672;SDS011;61972;19.480;-99.240;2023-03-04T01:17:33;15.25;;;5.80;;
73672;SDS011;61972;19.480;-99.240;2023-03-04T01:19:59;13.87;;;5.30;;
73672;SDS011;61972;19.480;-99.240;2023-03-04T01:22:26;10.70;;;5.25;;
73672;SDS011;61972;19.480;-99.240;2023-03-04T01:24:52;10.65;;;5.47;;
73672;SDS011;61972;19.480;-99.240;2023-03-04T01:27:18;13.13;;;5.60;;
73672;SDS011;61972;19.480;-99.240;2023-03-04T01:29:44;13.18;;;5.68;;
73672;SDS011;61972;19.480;-99.240;2023-03-04T01:32:10;12.20;;;5.57;;
73672;SDS011;61972;19.480;-99.240;2023-03-04T01:34:36;14.45;;;5.85;;
73672;SDS011;61972;19.480;-99.240;2023-03-04T01:37:02;11.82;;;5.88;;
73672;SDS011;61972;19.480;-99.240;2023-03-04T01:39:28;12.88;;;5.97;;
73672;SDS011;61972;19.480;-99.240;2023-03-04T01:41:54;19.15;;;6.00;;
73672;SDS011;61972;19.480;-99.240;2023-03-04T01:44:20;10.57;;;6.03;;
73672;SDS011;61972;19.480;-99.240;2023-03-04T01:46:47;14.52;;;6.07;;
73672;SDS011;61972;19.480;-99.240;2023-03-04T01:49:17;11.90;;;5.80;;
73672;SDS011;61972;19.480;-99.240;2023-03-04T01:51:48;11.88;;;5.90;;
73672;SDS011;61972;19.480;-99.240;2023-03-04T01:54:17;15.65;;;5.90;;
73672;SDS011;61972;19.480;-99.240;2023-03-04T01:56:45;17.20;;;5.97;;
73672;SDS011;61972;19.480;-99.240;2023-03-04T01:59:13;15.70;;;6.47;;
73672;SDS011;61972;19.480;-99.240;2023-03-04T02:01:54;10.30;;;6.72;;
73672;SDS011;61972;19.480;-99.240;2023-03-04T02:04:23;14.77;;;6.90;;
73672;SDS011;61972;19.480;-99.240;2023-03-04T02:06:51;13.15;;;6.63;;
73672;SDS011;61972;19.480;-99.240;2023-03-04T02:09:20;18.60;;;6.50;;
73672;SDS011;61972;19.480;-99.240;2023-03-04T02:11:46;12.23;;;6.07;;
73672;SDS011;61972;19.480;-99.240;2023-03-04T02:14:14;19.73;;;6.18;;
73672;SDS011;61972;19.480;-99.240;2023-03-04T02:16:42;13.35;;;6.05;;
73672;SDS011;61972;19.480;-99.240;2023-03-04T02:19:12;16.13;;;6.13;;
73672;SDS011;61972;19.480;-99.240;2023-03-04T02:21:57;13.37;;;6.03;;
73672;SDS011;61972;19.480;-99.240;2023-03-04T02:24:28;13.77;;;5.70;;
73672;SDS011;61972;19.480;-99.240;2023-03-04T02:27:00;13.55;;;5.93;;
73672;SDS011;61972;19.480;-99.240;2023-03-04T02:29:26;14.05;;;5.47;;
73672;SDS011;61972;19.480;-99.240;2023-03-04T02:31:53;15.88;;;5.78;;
73672;SDS011;61972;19.480;-99.240;2023-03-04T02:34:21;11.00;;;5.17;;
73672;SDS011;61972;19.480;-99.240;2023-03-04T02:36:49;15.57;;;5.20;;
73672;SDS011;61972;19.480;-99.240;2023-03-04T02:41:49;13.05;;;5.22;;
73672;SDS011;61972;19.480;-99.240;2023-03-04T02:46:45;12.73;;;5.10;;
73672;SDS011;61972;19.480;-99.240;2023-03-04T02:49:12;13.68;;;5.60;;
73672;SDS011;61972;19.480;-99.240;2023-03-04T02:51:38;16.35;;;5.95;;
73672;SDS011;61972;19.480;-99.240;2023-03-04T02:54:12;11.95;;;4.93;;
73672;SDS011;61972;19.480;-99.240;2023-03-04T02:56:43;13.82;;;5.50;;
73672;SDS011;61972;19.480;-99.240;2023-03-04T02:59:13;13.13;;;5.00;;
73672;SDS011;61972;19.480;-99.240;2023-03-04T03:01:39;15.55;;;5.40;;
73672;SDS011;61972;19.480;-99.240;2023-03-04T03:04:05;13.32;;;5.43;;
73672;SDS011;61972;19.480;-99.240;2023-03-04T03:06:31;12.27;;;5.30;;
73672;SDS011;61972;19.480;-99.240;2023-03-04T03:08:57;14.35;;;5.47;;
73672;SDS011;61972;19.480;-99.240;2023-03-04T03:11:23;12.27;;;4.97;;
73672;SDS011;61972;19.480;-99.240;2023-03-04T03:13:49;10.32;;;4.80;;
73672;SDS011;61972;19.480;-99.240;2023-03-04T03:16:15;13.73;;;5.13;;
73672;SDS011;61972;19.480;-99.240;2023-03-04T03:18:41;10.77;;;5.22;;
73672;SDS011;61972;19.480;-99.240;2023-03-04T03:21:07;12.90;;;4.80;;
73672;SDS011;61972;19.480;-99.240;2023-03-04T03:23:34;15.10;;;4.67;;
73672;SDS011;61972;19.480;-99.240;2023-03-04T03:26:00;10.55;;;4.70;;
73672;SDS011;61972;19.480;-99.240;2023-03-04T03:28:26;8.50;;;4.78;;
73672;SDS011;61972;19.480;-99.240;2023-03-04T03:30:53;11.13;;;4.97;;
73672;SDS011;61972;19.480;-99.240;2023-03-04T03:33:19;10.65;;;4.93;;
73672;SDS011;61972;19.480;-99.240;2023-03-04T03:35:46;13.10;;;4.40;;
73672;SDS011;61972;19.480;-99.240;2023-03-04T03:38:12;10.68;;;4.53;;
73672;SDS011;61972;19.480;-99.240;2023-03-04T03:40:38;9.18;;;4.78;;
73672;SDS011;61972;19.480;-99.240;2023-03-04T03:43:04;11.13;;;4.95;;
73672;SDS011;61972;19.480;-99.240;2023-03-04T03:45:30;11.43;;;4.85;;
73672;SDS011;61972;19.480;-99.240;2023-03-04T03:47:57;10.40;;;4.30;;
73672;SDS011;61972;19.480;-99.240;2023-03-04T03:50:23;12.18;;;4.65;;
73672;SDS011;61972;19.480;-99.240;2023-03-04T03:52:49;8.70;;;4.97;;
73672;SDS011;61972;19.480;-99.240;2023-03-04T03:55:15;10.98;;;4.65;;
73672;SDS011;61972;19.480;-99.240;2023-03-04T03:57:42;9.55;;;5.40;;
73672;SDS011;61972;19.480;-99.240;2023-03-04T04:00:08;13.60;;;5.40;;
73672;SDS011;61972;19.480;-99.240;2023-03-04T04:02:35;13.75;;;5.20;;
73672;SDS011;61972;19.480;-99.240;2023-03-04T04:05:01;12.80;;;5.55;;
73672;SDS011;61972;19.480;-99.240;2023-03-04T04:07:27;16.65;;;5.72;;
73672;SDS011;61972;19.480;-99.240;2023-03-04T04:09:53;13.05;;;5.57;;
73672;SDS011;61972;19.480;-99.240;2023-03-04T04:12:19;13.23;;;5.20;;
73672;SDS011;61972;19.480;-99.240;2023-03-04T04:14:45;12.15;;;5.85;;
73672;SDS011;61972;19.480;-99.240;2023-03-04T04:17:12;19.25;;;5.70;;
73672;SDS011;61972;19.480;-99.240;2023-03-04T04:19:38;13.18;;;5.72;;
73672;SDS011;61972;19.480;-99.240;2023-03-04T04:22:06;10.25;;;5.90;;
73672;SDS011;61972;19.480;-99.240;2023-03-04T04:24:34;12.10;;;6.60;;
73672;SDS011;61972;19.480;-99.240;2023-03-04T04:27:00;14.55;;;6.50;;
73672;SDS011;61972;19.480;-99.240;2023-03-04T04:29:28;12.32;;;6.15;;
73672;SDS011;61972;19.480;-99.240;2023-03-04T04:31:54;13.32;;;6.22;;
73672;SDS011;61972;19.480;-99.240;2023-03-04T04:34:20;11.13;;;6.15;;
73672;SDS011;61972;19.480;-99.240;2023-03-04T04:36:46;14.03;;;5.87;;
73672;SDS011;61972;19.480;-99.240;2023-03-04T04:39:13;12.10;;;5.72;;
73672;SDS011;61972;19.480;-99.240;2023-03-04T04:41:40;12.10;;;5.75;;
73672;SDS011;61972;19.480;-99.240;2023-03-04T04:44:07;17.33;;;5.95;;
73672;SDS011;61972;19.480;-99.240;2023-03-04T04:46:34;13.70;;;5.82;;
73672;SDS011;61972;19.480;-99.240;2023-03-04T04:49:00;10.80;;;5.43;;
73672;SDS011;61972;19.480;-99.240;2023-03-04T04:51:27;13.43;;;5.57;;
73672;SDS011;61972;19.480;-99.240;2023-03-04T04:53:57;11.95;;;5.68;;
73672;SDS011;61972;19.480;-99.240;2023-03-04T04:56:24;11.68;;;5.40;;
73672;SDS011;61972;19.480;-99.240;2023-03-04T04:58:55;13.50;;;5.60;;
73672;SDS011;61972;19.480;-99.240;2023-03-04T05:01:23;14.73;;;5.60;;
73672;SDS011;61972;19.480;-99.240;2023-03-04T05:03:50;12.80;;;5.35;;
73672;SDS011;61972;19.480;-99.240;2023-03-04T05:06:20;11.82;;;5.88;;
73672;SDS011;61972;19.480;-99.240;2023-03-04T05:08:47;16.17;;;4.75;;
73672;SDS011;61972;19.480;-99.240;2023-03-04T05:11:13;11.38;;;5.93;;
73672;SDS011;61972;19.480;-99.240;2023-03-04T05:13:40;12.87;;;5.67;;
73672;SDS011;61972;19.480;-99.240;2023-03-04T05:16:06;11.95;;;5.30;;
73672;SDS011;61972;19.480;-99.240;2023-03-04T05:18:33;16.77;;;5.53;;
73672;SDS011;61972;19.480;-99.240;2023-03-04T05:21:00;14.02;;;5.40;;
73672;SDS011;61972;19.480;-99.240;2023-03-04T05:23:28;13.20;;;5.70;;
73672;SDS011;61972;19.480;-99.240;2023-03-04T05:25:56;13.10;;;5.80;;
73672;SDS011;61972;19.480;-99.240;2023-03-04T05:28:22;12.02;;;5.85;;
73672;SDS011;61972;19.480;-99.240;2023-03-04T05:30:48;16.58;;;7.15;;
73672;SDS011;61972;19.480;-99.240;2023-03-04T05:33:15;14.05;;;6.88;;
73672;SDS011;61972;19.480;-99.240;2023-03-04T05:35:43;16.92;;;7.70;;
73672;SDS011;61972;19.480;-99.240;2023-03-04T05:38:11;16.73;;;7.50;;
73672;SDS011;61972;19.480;-99.240;2023-03-04T05:40:38;16.65;;;7.68;;
73672;SDS011;61972;19.480;-99.240;2023-03-04T05:43:05;16.75;;;7.53;;
73672;SDS011;61972;19.480;-99.240;2023-03-04T05:45:31;19.30;;;8.30;;
73672;SDS011;61972;19.480;-99.240;2023-03-04T05:47:58;15.32;;;8.20;;
73672;SDS011;61972;19.480;-99.240;2023-03-04T05:50:25;16.80;;;8.10;;
73672;SDS011;61972;19.480;-99.240;2023-03-04T05:52:51;17.92;;;7.75;;
73672;SDS011;61972;19.480;-99.240;2023-03-04T05:55:17;19.40;;;9.32;;
73672;SDS011;61972;19.480;-99.240;2023-03-04T05:57:43;19.33;;;8.48;;
73672;SDS011;61972;19.480;-99.240;2023-03-04T06:00:10;21.65;;;8.25;;
73672;SDS011;61972;19.480;-99.240;2023-03-04T06:02:37;18.23;;;8.33;;
73672;SDS011;61972;19.480;-99.240;2023-03-04T06:05:04;19.67;;;7.82;;
73672;SDS011;61972;19.480;-99.240;2023-03-04T06:07:31;16.98;;;7.90;;
73672;SDS011;61972;19.480;-99.240;2023-03-04T06:09:57;20.52;;;7.40;;
73672;SDS011;61972;19.480;-99.240;2023-03-04T06:12:23;16.08;;;7.55;;
73672;SDS011;61972;19.480;-99.240;2023-03-04T06:14:49;14.50;;;7.60;;
73672;SDS011;61972;19.480;-99.240;2023-03-04T06:17:15;13.52;;;7.35;;
73672;SDS011;61972;19.480;-99.240;2023-03-04T06:19:42;20.85;;;7.20;;
73672;SDS011;61972;19.480;-99.240;2023-03-04T06:22:08;15.20;;;7.60;;
73672;SDS011;61972;19.480;-99.240;2023-03-04T06:24:35;15.93;;;7.95;;
73672;SDS011;61972;19.480;-99.240;2023-03-04T06:27:02;11.80;;;6.93;;
73672;SDS011;61972;19.480;-99.240;2023-03-04T06:29:28;14.88;;;7.03;;
73672;SDS011;61972;19.480;-99.240;2023-03-04T06:31:54;13.65;;;7.20;;
73672;SDS011;61972;19.480;-99.240;2023-03-04T06:34:20;13.43;;;7.53;;
73672;SDS011;61972;19.480;-99.240;2023-03-04T06:36:46;14.43;;;7.40;;
73672;SDS011;61972;19.480;-99.240;2023-03-04T06:39:12;13.37;;;6.93;;
73672;SDS011;61972;19.480;-99.240;2023-03-04T06:41:39;12.23;;;6.53;;
73672;SDS011;61972;19.480;-99.240;2023-03-04T06:44:05;11.68;;;7.00;;
73672;SDS011;61972;19.480;-99.240;2023-03-04T06:46:34;13.85;;;7.20;;
73672;SDS011;61972;19.480;-99.240;2023-03-04T06:49:01;12.32;;;6.70;;
73672;SDS011;61972;19.480;-99.240;2023-03-04T06:51:27;11.07;;;6.40;;
73672;SDS011;61972;19.480;-99.240;2023-03-04T06:53:53;12.52;;;6.80;;
73672;SDS011;61972;19.480;-99.240;2023-03-04T06:56:19;12.10;;;6.95;;
73672;SDS011;61972;19.480;-99.240;2023-03-04T06:58:45;10.38;;;6.50;;
73672;SDS011;61972;19.480;-99.240;2023-03-04T07:01:13;10.63;;;6.43;;
73672;SDS011;61972;19.480;-99.240;2023-03-04T07:03:43;11.73;;;6.17;;
73672;SDS011;61972;19.480;-99.240;2023-03-04T07:06:13;9.65;;;5.90;;
73672;SDS011;61972;19.480;-99.240;2023-03-04T07:08:40;11.68;;;6.63;;
73672;SDS011;61972;19.480;-99.240;2023-03-04T07:11:07;11.10;;;6.43;;
73672;SDS011;61972;19.480;-99.240;2023-03-04T07:13:33;12.07;;;6.07;;
73672;SDS011;61972;19.480;-99.240;2023-03-04T07:16:03;10.33;;;5.73;;
73672;SDS011;61972;19.480;-99.240;2023-03-04T07:18:30;9.27;;;5.72;;
73672;SDS011;61972;19.480;-99.240;2023-03-04T07:20:56;10.85;;;6.57;;
73672;SDS011;61972;19.480;-99.240;2023-03-04T07:23:22;9.98;;;5.80;;
73672;SDS011;61972;19.480;-99.240;2023-03-04T07:25:48;10.02;;;6.43;;
73672;SDS011;61972;19.480;-99.240;2023-03-04T07:28:15;10.70;;;5.90;;
73672;SDS011;61972;19.480;-99.240;2023-03-04T07:30:41;10.23;;;6.38;;
73672;SDS011;61972;19.480;-99.240;2023-03-04T07:33:07;11.20;;;6.30;;
73672;SDS011;61972;19.480;-99.240;2023-03-04T07:35:33;9.55;;;5.95;;
73672;SDS011;61972;19.480;-99.240;2023-03-04T07:37:59;10.35;;;5.90;;
73672;SDS011;61972;19.480;-99.240;2023-03-04T07:40:25;11.70;;;6.00;;
73672;SDS011;61972;19.480;-99.240;2023-03-04T07:42:52;9.88;;;6.28;;
73672;SDS011;61972;19.480;-99.240;2023-03-04T07:45:20;13.10;;;5.90;;
73672;SDS011;61972;19.480;-99.240;2023-03-04T07:47:47;13.45;;;5.88;;
73672;SDS011;61972;19.480;-99.240;2023-03-04T07:50:13;11.73;;;5.78;;
73672;SDS011;61972;19.480;-99.240;2023-03-04T07:52:40;10.17;;;5.60;;
73672;SDS011;61972;19.480;-99.240;2023-03-04T07:55:09;8.32;;;5.50;;
73672;SDS011;61972;19.480;-99.240;2023-03-04T07:57:40;10.70;;;5.57;;
73672;SDS011;61972;19.480;-99.240;2023-03-04T08:00:08;11.00;;;5.43;;
73672;SDS011;61972;19.480;-99.240;2023-03-04T08:02:35;13.73;;;5.18;;
73672;SDS011;61972;19.480;-99.240;2023-03-04T08:05:01;10.87;;;4.77;;
73672;SDS011;61972;19.480;-99.240;2023-03-04T08:07:27;9.43;;;5.15;;
73672;SDS011;61972;19.480;-99.240;2023-03-04T08:09:53;13.43;;;5.53;;
73672;SDS011;61972;19.480;-99.240;2023-03-04T08:12:19;8.98;;;5.40;;
73672;SDS011;61972;19.480;-99.240;2023-03-04T08:14:45;8.73;;;5.30;;
73672;SDS011;61972;19.480;-99.240;2023-03-04T08:17:11;10.40;;;5.10;;
73672;SDS011;61972;19.480;-99.240;2023-03-04T08:19:39;9.18;;;5.00;;
73672;SDS011;61972;19.480;-99.240;2023-03-04T08:22:05;8.55;;;5.13;;
73672;SDS011;61972;19.480;-99.240;2023-03-04T08:24:31;9.07;;;5.13;;
73672;SDS011;61972;19.480;-99.240;2023-03-04T08:26:57;9.15;;;5.32;;
73672;SDS011;61972;19.480;-99.240;2023-03-04T08:29:24;9.13;;;5.40;;
73672;SDS011;61972;19.480;-99.240;2023-03-04T08:31:51;9.90;;;5.22;;
73672;SDS011;61972;19.480;-99.240;2023-03-04T08:34:19;8.23;;;4.82;;
73672;SDS011;61972;19.480;-99.240;2023-03-04T08:36:46;8.00;;;4.70;;
73672;SDS011;61972;19.480;-99.240;2023-03-04T08:39:13;8.38;;;4.88;;
73672;SDS011;61972;19.480;-99.240;2023-03-04T08:41:41;8.47;;;4.73;;
73672;SDS011;61972;19.480;-99.240;2023-03-04T08:44:07;7.90;;;4.90;;
73672;SDS011;61972;19.480;-99.240;2023-03-04T08:46:38;8.05;;;4.88;;
73672;SDS011;61972;19.480;-99.240;2023-03-04T08:49:05;7.15;;;5.03;;
73672;SDS011;61972;19.480;-99.240;2023-03-04T08:51:31;10.50;;;4.45;;
73672;SDS011;61972;19.480;-99.240;2023-03-04T08:54:00;6.67;;;4.50;;
73672;SDS011;61972;19.480;-99.240;2023-03-04T08:56:27;8.35;;;4.53;;
73672;SDS011;61972;19.480;-99.240;2023-03-04T08:58:53;8.60;;;4.90;;
73672;SDS011;61972;19.480;-99.240;2023-03-04T09:01:19;8.35;;;4.93;;
73672;SDS011;61972;19.480;-99.240;2023-03-04T09:03:45;7.15;;;4.68;;
73672;SDS011;61972;19.480;-99.240;2023-03-04T09:06:12;6.37;;;3.93;;
73672;SDS011;61972;19.480;-99.240;2023-03-04T09:08:39;6.95;;;4.55;;
73672;SDS011;61972;19.480;-99.240;2023-03-04T09:11:06;7.55;;;4.45;;
73672;SDS011;61972;19.480;-99.240;2023-03-04T09:13:32;7.45;;;4.35;;
73672;SDS011;61972;19.480;-99.240;2023-03-04T09:15:59;7.20;;;4.25;;
73672;SDS011;61972;19.480;-99.240;2023-03-04T09:18:25;7.37;;;4.10;;
73672;SDS011;61972;19.480;-99.240;2023-03-04T09:20:52;7.43;;;4.50;;
73672;SDS011;61972;19.480;-99.240;2023-03-04T09:23:18;5.85;;;4.07;;
73672;SDS011;61972;19.480;-99.240;2023-03-04T09:25:45;7.57;;;4.60;;
73672;SDS011;61972;19.480;-99.240;2023-03-04T09:28:12;6.78;;;4.13;;
73672;SDS011;61972;19.480;-99.240;2023-03-04T09:30:39;6.57;;;4.23;;
73672;SDS011;61972;19.480;-99.240;2023-03-04T09:33:05;7.03;;;4.68;;
73672;SDS011;61972;19.480;-99.240;2023-03-04T09:35:31;7.07;;;4.50;;
73672;SDS011;61972;19.480;-99.240;2023-03-04T09:37:57;6.70;;;3.75;;
73672;SDS011;61972;19.480;-99.240;2023-03-04T09:40:46;6.15;;;4.32;;
73672;SDS011;61972;19.480;-99.240;2023-03-04T09:43:22;5.90;;;4.30;;
73672;SDS011;61972;19.480;-99.240;2023-03-04T09:45:57;6.30;;;4.10;;
73672;SDS011;61972;19.480;-99.240;2023-03-04T09:48:27;6.85;;;3.90;;
73672;SDS011;61972;19.480;-99.240;2023-03-04T09:53:54;5.45;;;4.07;;
73672;SDS011;61972;19.480;-99.240;2023-03-04T09:56:40;4.90;;;3.50;;
73672;SDS011;61972;19.480;-99.240;2023-03-04T10:01:49;6.28;;;3.90;;
73672;SDS011;61972;19.480;-99.240;2023-03-04T10:07:20;6.22;;;4.35;;
73672;SDS011;61972;19.480;-99.240;2023-03-04T10:09:53;6.33;;;4.00;;
73672;SDS011;61972;19.480;-99.240;2023-03-04T10:12:29;5.60;;;3.80;;
73672;SDS011;61972;19.480;-99.240;2023-03-04T10:15:06;5.57;;;3.78;;
73672;SDS011;61972;19.480;-99.240;2023-03-04T10:17:53;4.95;;;3.38;;
73672;SDS011;61972;19.480;-99.240;2023-03-04T10:20:27;5.97;;;3.83;;
73672;SDS011;61972;19.480;-99.240;2023-03-04T10:23:10;5.50;;;3.37;;
73672;SDS011;61972;19.480;-99.240;2023-03-04T10:25:43;4.57;;;3.28;;
73672;SDS011;61972;19.480;-99.240;2023-03-04T10:28:12;5.10;;;3.60;;
73672;SDS011;61972;19.480;-99.240;2023-03-04T10:31:04;6.18;;;3.47;;
73672;SDS011;61972;19.480;-99.240;2023-03-04T10:33:37;5.82;;;3.75;;
73672;SDS011;61972;19.480;-99.240;2023-03-04T10:38:51;4.93;;;3.45;;
73672;SDS011;61972;19.480;-99.240;2023-03-04T10:41:20;5.20;;;3.45;;
73672;SDS011;61972;19.480;-99.240;2023-03-04T10:44:00;5.30;;;3.30;;
73672;SDS011;61972;19.480;-99.240;2023-03-04T10:46:30;4.60;;;3.53;;
73672;SDS011;61972;19.480;-99.240;2023-03-04T10:48:57;4.70;;;3.40;;
73672;SDS011;61972;19.480;-99.240;2023-03-04T10:51:24;4.55;;;3.30;;
73672;SDS011;61972;19.480;-99.240;2023-03-04T10:54:06;5.05;;;3.53;;
73672;SDS011;61972;19.480;-99.240;2023-03-04T10:57:03;4.78;;;3.13;;
73672;SDS011;61972;19.480;-99.240;2023-03-04T11:04:50;4.47;;;2.95;;
73672;SDS011;61972;19.480;-99.240;2023-03-04T11:07:22;5.60;;;3.38;;
73672;SDS011;61972;19.480;-99.240;2023-03-04T11:09:50;4.57;;;2.83;;
73672;SDS011;61972;19.480;-99.240;2023-03-04T11:12:18;5.07;;;3.35;;
73672;SDS011;61972;19.480;-99.240;2023-03-04T11:14:47;5.07;;;3.23;;
73672;SDS011;61972;19.480;-99.240;2023-03-04T11:17:24;4.22;;;3.13;;
73672;SDS011;61972;19.480;-99.240;2023-03-04T11:23:05;4.88;;;3.25;;
73672;SDS011;61972;19.480;-99.240;2023-03-04T11:25:42;4.30;;;3.00;;
73672;SDS011;61972;19.480;-99.240;2023-03-04T11:28:13;4.67;;;3.23;;
73672;SDS011;61972;19.480;-99.240;2023-03-04T11:33:56;4.65;;;3.08;;
73672;SDS011;61972;19.480;-99.240;2023-03-04T11:36:52;3.95;;;3.05;;
73672;SDS011;61972;19.480;-99.240;2023-03-04T11:39:30;4.82;;;3.00;;
73672;SDS011;61972;19.480;-99.240;2023-03-04T11:42:06;4.87;;;3.00;;
73672;SDS011;61972;19.480;-99.240;2023-03-04T11:44:48;3.85;;;2.75;;
73672;SDS011;61972;19.480;-99.240;2023-03-04T11:52:32;4.40;;;2.83;;
73672;SDS011;61972;19.480;-99.240;2023-03-04T11:57:43;4.45;;;2.88;;
73672;SDS011;61972;19.480;-99.240;2023-03-04T12:00:35;4.45;;;2.95;;
73672;SDS011;61972;19.480;-99.240;2023-03-04T12:06:06;3.78;;;2.88;;
73672;SDS011;61972;19.480;-99.240;2023-03-04T12:11:33;4.68;;;2.75;;
73672;SDS011;61972;19.480;-99.240;2023-03-04T12:14:23;3.92;;;2.80;;
73672;SDS011;61972;19.480;-99.240;2023-03-04T12:22:33;3.43;;;2.40;;
73672;SDS011;61972;19.480;-99.240;2023-03-04T12:28:23;3.80;;;2.80;;
73672;SDS011;61972;19.480;-99.240;2023-03-04T12:33:54;3.60;;;2.80;;
73672;SDS011;61972;19.480;-99.240;2023-03-04T12:36:43;3.70;;;2.50;;
73672;SDS011;61972;19.480;-99.240;2023-03-04T12:44:26;3.72;;;2.55;;
73672;SDS011;61972;19.480;-99.240;2023-03-04T12:55:43;3.70;;;2.40;;
73672;SDS011;61972;19.480;-99.240;2023-03-04T12:58:26;4.13;;;2.72;;
73672;SDS011;61972;19.480;-99.240;2023-03-04T13:03:36;3.57;;;2.60;;
73672;SDS011;61972;19.480;-99.240;2023-03-04T13:06:13;3.72;;;2.45;;
73672;SDS011;61972;19.480;-99.240;2023-03-04T13:08:57;3.70;;;2.70;;
73672;SDS011;61972;19.480;-99.240;2023-03-04T13:16:44;2.90;;;2.23;;
73672;SDS011;61972;19.480;-99.240;2023-03-04T13:35:54;2.97;;;2.50;;
73672;SDS011;61972;19.480;-99.240;2023-03-04T13:43:44;3.43;;;2.13;;
73672;SDS011;61972;19.480;-99.240;2023-03-04T13:53:50;3.60;;;2.60;;
73672;SDS011;61972;19.480;-99.240;2023-03-04T14:01:35;4.55;;;2.35;;
73672;SDS011;61972;19.480;-99.240;2023-03-04T14:04:18;3.80;;;2.38;;
73672;SDS011;61972;19.480;-99.240;2023-03-04T14:06:46;3.70;;;2.28;;
73672;SDS011;61972;19.480;-99.240;2023-03-04T14:09:15;3.73;;;2.30;;
73672;SDS011;61972;19.480;-99.240;2023-03-04T14:11:47;3.22;;;1.95;;
73672;SDS011;61972;19.480;-99.240;2023-03-04T14:14:16;3.28;;;2.30;;
73672;SDS011;61972;19.480;-99.240;2023-03-04T14:16:52;3.97;;;2.60;;
73672;SDS011;61972;19.480;-99.240;2023-03-04T14:19:24;3.35;;;2.20;;
73672;SDS011;61972;19.480;-99.240;2023-03-04T14:22:00;2.80;;;1.83;;
73672;SDS011;61972;19.480;-99.240;2023-03-04T14:24:26;3.40;;;2.55;;
73672;SDS011;61972;19.480;-99.240;2023-03-04T14:27:11;4.13;;;2.47;;
73672;SDS011;61972;19.480;-99.240;2023-03-04T14:29:38;3.88;;;2.22;;
73672;SDS011;61972;19.480;-99.240;2023-03-04T14:32:04;3.95;;;2.28;;
73672;SDS011;61972;19.480;-99.240;2023-03-04T14:34:32;2.90;;;2.03;;
73672;SDS011;61972;19.480;-99.240;2023-03-04T14:37:01;4.15;;;2.08;;
73672;SDS011;61972;19.480;-99.240;2023-03-04T14:39:30;3.22;;;2.40;;
73672;SDS011;61972;19.480;-99.240;2023-03-04T14:42:07;4.63;;;2.00;;
73672;SDS011;61972;19.480;-99.240;2023-03-04T14:44:36;6.20;;;2.22;;
73672;SDS011;61972;19.480;-99.240;2023-03-04T14:47:19;4.67;;;2.37;;
73672;SDS011;61972;19.480;-99.240;2023-03-04T14:50:05;3.58;;;2.30;;
73672;SDS011;61972;19.480;-99.240;2023-03-04T14:52:34;3.10;;;2.03;;
73672;SDS011;61972;19.480;-99.240;2023-03-04T14:55:16;3.42;;;1.88;;
73672;SDS011;61972;19.480;-99.240;2023-03-04T14:57:49;3.60;;;2.40;;
73672;SDS011;61972;19.480;-99.240;2023-03-04T15:02:54;3.67;;;2.20;;
73672;SDS011;61972;19.480;-99.240;2023-03-04T15:05:24;4.43;;;2.30;;
73672;SDS011;61972;19.480;-99.240;2023-03-04T15:08:42;3.42;;;2.05;;
73672;SDS011;61972;19.480;-99.240;2023-03-04T15:10:56;3.35;;;2.17;;
73672;SDS011;61972;19.480;-99.240;2023-03-04T15:13:43;7.50;;;2.20;;
73672;SDS011;61972;19.480;-99.240;2023-03-04T15:16:12;4.35;;;2.17;;
73672;SDS011;61972;19.480;-99.240;2023-03-04T15:19:25;4.45;;;1.95;;
73672;SDS011;61972;19.480;-99.240;2023-03-04T15:21:32;5.40;;;2.20;;
73672;SDS011;61972;19.480;-99.240;2023-03-04T15:24:04;3.25;;;2.00;;
73672;SDS011;61972;19.480;-99.240;2023-03-04T15:26:32;3.20;;;2.00;;
73672;SDS011;61972;19.480;-99.240;2023-03-04T15:29:02;2.85;;;1.98;;
73672;SDS011;61972;19.480;-99.240;2023-03-04T15:31:35;3.67;;;1.83;;
73672;SDS011;61972;19.480;-99.240;2023-03-04T15:34:01;2.92;;;1.80;;
73672;SDS011;61972;19.480;-99.240;2023-03-04T15:36:27;2.67;;;1.88;;
73672;SDS011;61972;19.480;-99.240;2023-03-04T15:38:53;2.83;;;1.83;;
73672;SDS011;61972;19.480;-99.240;2023-03-04T15:41:23;3.05;;;1.80;;
73672;SDS011;61972;19.480;-99.240;2023-03-04T15:43:50;3.50;;;2.10;;
73672;SDS011;61972;19.480;-99.240;2023-03-04T15:46:18;3.72;;;1.65;;
73672;SDS011;61972;19.480;-99.240;2023-03-04T15:48:45;3.17;;;1.75;;
73672;SDS011;61972;19.480;-99.240;2023-03-04T15:51:16;2.63;;;1.60;;
73672;SDS011;61972;19.480;-99.240;2023-03-04T15:53:47;2.90;;;1.80;;
73672;SDS011;61972;19.480;-99.240;2023-03-04T15:56:19;3.42;;;1.90;;
73672;SDS011;61972;19.480;-99.240;2023-03-04T15:58:58;3.30;;;2.10;;
73672;SDS011;61972;19.480;-99.240;2023-03-04T16:01:28;2.85;;;1.90;;
73672;SDS011;61972;19.480;-99.240;2023-03-04T16:03:54;2.70;;;1.67;;
73672;SDS011;61972;19.480;-99.240;2023-03-04T16:06:20;2.85;;;1.80;;
73672;SDS011;61972;19.480;-99.240;2023-03-04T16:08:49;3.13;;;1.70;;
73672;SDS011;61972;19.480;-99.240;2023-03-04T16:11:18;3.03;;;1.65;;
73672;SDS011;61972;19.480;-99.240;2023-03-04T16:13:47;2.92;;;1.85;;
73672;SDS011;61972;19.480;-99.240;2023-03-04T16:16:14;3.00;;;1.57;;
73672;SDS011;61972;19.480;-99.240;2023-03-04T16:18:40;2.92;;;1.70;;